sensor_id;sensor_type;location;lat;lon;timestamp;pressure;altitude;pressure_sealevel;temperature;humidity
4858;BME280;58975;51.978;8.472;2023-04-27T00:03:31;100720.41;;;2.51;100.00
4858;BME280;58975;51.978;8.472;2023-04-27T00:08:27;100725.28;;;2.60;100.00
4858;BME280;58975;51.978;8.472;2023-04-27T00:13:24;100727.16;;;2.58;100.00
4858;BME280;58975;51.978;8.472;2023-04-27T00:18:20;100731.56;;;2.58;100.00
4858;BME280;58975;51.978;8.472;2023-04-27T00:23:16;100733.66;;;2.50;100.00
4858;BME280;58975;51.978;8.472;2023-04-27T00:28:13;100721.75;;;2.41;100.00
4858;BME280;58975;51.978;8.472;2023-04-27T00:33:09;100721.94;;;2.36;100.00
4858;BME280;58975;51.978;8.472;2023-04-27T00:38:05;100723.69;;;2.36;100.00
4858;BME280;58975;51.978;8.472;2023-04-27T00:43:02;100733.88;;;2.44;100.00
4858;BME280;58975;51.978;8.472;2023-04-27T00:47:58;100728.75;;;2.41;100.00
4858;BME280;58975;51.978;8.472;2023-04-27T00:52:55;100722.84;;;2.35;100.00
4858;BME280;58975;51.978;8.472;2023-04-27T00:57:52;100732.75;;;2.29;100.00
4858;BME280;58975;51.978;8.472;2023-04-27T01:02:49;100734.78;;;2.22;100.00
4858;BME280;58975;51.978;8.472;2023-04-27T01:07:47;100747.13;;;2.20;100.00
4858;BME280;58975;51.978;8.472;2023-04-27T01:12:43;100755.81;;;2.22;100.00
4858;BME280;58975;51.978;8.472;2023-04-27T01:17:40;100756.78;;;2.20;100.00
4858;BME280;58975;51.978;8.472;2023-04-27T01:22:37;100753.72;;;2.30;100.00
4858;BME280;58975;51.978;8.472;2023-04-27T01:27:33;100766.56;;;2.38;100.00
4858;BME280;58975;51.978;8.472;2023-04-27T01:32:29;100765.56;;;2.41;100.00
4858;BME280;58975;51.978;8.472;2023-04-27T01:37:26;100780.59;;;2.37;100.00
4858;BME280;58975;51.978;8.472;2023-04-27T01:42:22;100787.09;;;2.50;100.00
4858;BME280;58975;51.978;8.472;2023-04-27T01:47:19;100787.00;;;2.52;100.00
4858;BME280;58975;51.978;8.472;2023-04-27T01:52:15;100793.19;;;2.51;100.00
4858;BME280;58975;51.978;8.472;2023-04-27T01:57:12;100792.94;;;2.57;100.00
4858;BME280;58975;51.978;8.472;2023-04-27T02:02:09;100797.28;;;2.58;100.00
4858;BME280;58975;51.978;8.472;2023-04-27T02:07:05;100796.59;;;2.53;100.00
4858;BME280;58975;51.978;8.472;2023-04-27T02:12:02;100799.06;;;2.35;100.00
4858;BME280;58975;51.978;8.472;2023-04-27T02:16:59;100807.47;;;2.23;100.00
4858;BME280;58975;51.978;8.472;2023-04-27T02:21:55;100799.44;;;2.26;100.00
4858;BME280;58975;51.978;8.472;2023-04-27T02:26:51;100806.81;;;2.17;100.00
4858;BME280;58975;51.978;8.472;2023-04-27T02:31:48;100805.78;;;1.99;100.00
4858;BME280;58975;51.978;8.472;2023-04-27T02:36:44;100804.78;;;1.80;100.00
4858;BME280;58975;51.978;8.472;2023-04-27T02:41:41;100805.25;;;1.68;100.00
4858;BME280;58975;51.978;8.472;2023-04-27T02:46:37;100802.06;;;1.60;100.00
4858;BME280;58975;51.978;8.472;2023-04-27T02:51:33;100804.22;;;1.49;100.00
4858;BME280;58975;51.978;8.472;2023-04-27T02:56:30;100805.53;;;1.37;100.00
4858;BME280;58975;51.978;8.472;2023-04-27T03:01:26;100795.53;;;0.99;100.00
4858;BME280;58975;51.978;8.472;2023-04-27T03:06:23;100797.66;;;0.63;100.00
4858;BME280;58975;51.978;8.472;2023-04-27T03:11:19;100801.44;;;0.54;100.00
4858;BME280;58975;51.978;8.472;2023-04-27T03:16:16;100799.75;;;0.52;100.00
4858;BME280;58975;51.978;8.472;2023-04-27T03:21:12;100797.84;;;0.57;100.00
4858;BME280;58975;51.978;8.472;2023-04-27T03:26:10;100781.00;;;0.64;100.00
4858;BME280;58975;51.978;8.472;2023-04-27T03:31:09;100786.38;;;0.61;100.00
4858;BME280;58975;51.978;8.472;2023-04-27T03:36:07;100800.34;;;0.35;100.00
4858;BME280;58975;51.978;8.472;2023-04-27T03:41:05;100789.44;;;0.21;100.00
4858;BME280;58975;51.978;8.472;2023-04-27T03:46:01;100791.19;;;0.20;100.00
4858;BME280;58975;51.978;8.472;2023-04-27T03:50:59;100788.06;;;0.09;100.00
4858;BME280;58975;51.978;8.472;2023-04-27T03:55:55;100791.19;;;-0.08;100.00
4858;BME280;58975;51.978;8.472;2023-04-27T04:00:52;100796.75;;;-0.18;100.00
4858;BME280;58975;51.978;8.472;2023-04-27T04:05:49;100808.81;;;-0.13;100.00
4858;BME280;58975;51.978;8.472;2023-04-27T04:10:46;100808.94;;;-0.17;100.00
4858;BME280;58975;51.978;8.472;2023-04-27T04:15:42;100809.72;;;-0.14;100.00
4858;BME280;58975;51.978;8.472;2023-04-27T04:20:39;100824.88;;;-0.25;100.00
4858;BME280;58975;51.978;8.472;2023-04-27T04:25:36;100831.06;;;-0.27;100.00
4858;BME280;58975;51.978;8.472;2023-04-27T04:30:35;100825.91;;;-0.30;100.00
4858;BME280;58975;51.978;8.472;2023-04-27T04:35:31;100835.25;;;-0.22;100.00
4858;BME280;58975;51.978;8.472;2023-04-27T04:40:28;100842.88;;;-0.14;100.00
4858;BME280;58975;51.978;8.472;2023-04-27T04:45:25;100847.22;;;-0.13;100.00
4858;BME280;58975;51.978;8.472;2023-04-27T04:50:22;100847.66;;;0.01;100.00
4858;BME280;58975;51.978;8.472;2023-04-27T04:55:19;100851.34;;;0.23;100.00
4858;BME280;58975;51.978;8.472;2023-04-27T05:00:15;100849.56;;;0.52;100.00
4858;BME280;58975;51.978;8.472;2023-04-27T05:05:12;100849.03;;;0.67;100.00
4858;BME280;58975;51.978;8.472;2023-04-27T05:10:08;100853.75;;;0.83;100.00
4858;BME280;58975;51.978;8.472;2023-04-27T05:15:05;100856.84;;;0.70;100.00
4858;BME280;58975;51.978;8.472;2023-04-27T05:20:02;100858.94;;;0.85;100.00
4858;BME280;58975;51.978;8.472;2023-04-27T05:25:00;100857.63;;;1.48;100.00
4858;BME280;58975;51.978;8.472;2023-04-27T05:29:56;100867.50;;;2.32;100.00
4858;BME280;58975;51.978;8.472;2023-04-27T05:34:53;100882.63;;;3.13;100.00
4858;BME280;58975;51.978;8.472;2023-04-27T05:39:49;100886.47;;;3.65;100.00
4858;BME280;58975;51.978;8.472;2023-04-27T05:44:45;100875.72;;;4.08;100.00
4858;BME280;58975;51.978;8.472;2023-04-27T05:49:42;100874.06;;;4.79;100.00
4858;BME280;58975;51.978;8.472;2023-04-27T05:54:38;100871.81;;;5.06;100.00
4858;BME280;58975;51.978;8.472;2023-04-27T05:59:35;100875.94;;;4.77;100.00
4858;BME280;58975;51.978;8.472;2023-04-27T06:04:31;100883.03;;;4.58;100.00
4858;BME280;58975;51.978;8.472;2023-04-27T06:09:31;100876.09;;;4.55;100.00
4858;BME280;58975;51.978;8.472;2023-04-27T06:14:28;100876.09;;;4.91;100.00
4858;BME280;58975;51.978;8.472;2023-04-27T06:19:24;100874.41;;;5.07;100.00
4858;BME280;58975;51.978;8.472;2023-04-27T06:24:22;100874.88;;;5.33;100.00
4858;BME280;58975;51.978;8.472;2023-04-27T06:29:18;100878.38;;;5.66;100.00
4858;BME280;58975;51.978;8.472;2023-04-27T06:34:14;100879.19;;;6.16;100.00
4858;BME280;58975;51.978;8.472;2023-04-27T06:39:11;100878.19;;;6.19;100.00
4858;BME280;58975;51.978;8.472;2023-04-27T06:44:07;100871.44;;;6.60;100.00
4858;BME280;58975;51.978;8.472;2023-04-27T06:49:04;100879.09;;;6.96;100.00
4858;BME280;58975;51.978;8.472;2023-04-27T06:54:01;100882.88;;;7.06;100.00
4858;BME280;58975;51.978;8.472;2023-04-27T06:58:57;100883.50;;;7.26;100.00
4858;BME280;58975;51.978;8.472;2023-04-27T07:03:53;100881.50;;;7.73;100.00
4858;BME280;58975;51.978;8.472;2023-04-27T07:08:50;100893.16;;;7.71;100.00
4858;BME280;58975;51.978;8.472;2023-04-27T07:13:47;100879.31;;;7.07;100.00
4858;BME280;58975;51.978;8.472;2023-04-27T07:18:43;100879.53;;;7.63;100.00
4858;BME280;58975;51.978;8.472;2023-04-27T07:23:39;100878.97;;;7.86;100.00
4858;BME280;58975;51.978;8.472;2023-04-27T07:28:37;100875.81;;;8.36;100.00
4858;BME280;58975;51.978;8.472;2023-04-27T07:33:34;100872.91;;;8.67;96.68
4858;BME280;58975;51.978;8.472;2023-04-27T07:38:30;100867.03;;;8.89;92.16
4858;BME280;58975;51.978;8.472;2023-04-27T07:43:27;100857.16;;;9.43;81.98
4858;BME280;58975;51.978;8.472;2023-04-27T07:48:23;100860.63;;;9.18;85.57
4858;BME280;58975;51.978;8.472;2023-04-27T07:53:20;100858.97;;;9.42;79.42
4858;BME280;58975;51.978;8.472;2023-04-27T07:58:17;100857.06;;;9.57;73.70
4858;BME280;58975;51.978;8.472;2023-04-27T08:03:15;100856.50;;;8.87;78.73
4858;BME280;58975;51.978;8.472;2023-04-27T08:08:12;100854.41;;;9.44;76.94
4858;BME280;58975;51.978;8.472;2023-04-27T08:13:09;100849.53;;;9.64;79.80
4858;BME280;58975;51.978;8.472;2023-04-27T08:18:05;100847.91;;;9.36;70.85
4858;BME280;58975;51.978;8.472;2023-04-27T08:23:02;100856.00;;;9.60;69.48
4858;BME280;58975;51.978;8.472;2023-04-27T08:27:58;100854.75;;;9.00;75.60
4858;BME280;58975;51.978;8.472;2023-04-27T08:32:54;100852.59;;;9.70;72.05
4858;BME280;58975;51.978;8.472;2023-04-27T08:37:51;100851.91;;;10.05;67.16
4858;BME280;58975;51.978;8.472;2023-04-27T08:42:54;100851.72;;;9.19;64.72
4858;BME280;58975;51.978;8.472;2023-04-27T08:47:51;100847.81;;;9.63;69.25
4858;BME280;58975;51.978;8.472;2023-04-27T08:52:49;100842.28;;;9.66;67.87
4858;BME280;58975;51.978;8.472;2023-04-27T08:57:56;100848.44;;;8.89;65.99
4858;BME280;58975;51.978;8.472;2023-04-27T09:02:53;100842.94;;;8.65;65.47
4858;BME280;58975;51.978;8.472;2023-04-27T09:07:57;100848.69;;;8.98;61.98
4858;BME280;58975;51.978;8.472;2023-04-27T09:12:58;100840.13;;;9.20;62.60
4858;BME280;58975;51.978;8.472;2023-04-27T09:17:56;100836.19;;;10.51;61.78
4858;BME280;58975;51.978;8.472;2023-04-27T09:22:53;100836.72;;;10.07;60.96
4858;BME280;58975;51.978;8.472;2023-04-27T09:27:51;100846.31;;;9.84;65.06
4858;BME280;58975;51.978;8.472;2023-04-27T09:32:55;100843.25;;;9.52;62.03
4858;BME280;58975;51.978;8.472;2023-04-27T09:37:53;100839.38;;;9.31;63.28
4858;BME280;58975;51.978;8.472;2023-04-27T09:42:49;100830.50;;;8.92;58.46
4858;BME280;58975;51.978;8.472;2023-04-27T09:47:46;100833.06;;;9.07;60.37
4858;BME280;58975;51.978;8.472;2023-04-27T09:52:45;100831.44;;;9.56;62.18
4858;BME280;58975;51.978;8.472;2023-04-27T10:02:58;100820.09;;;10.16;60.95
4858;BME280;58975;51.978;8.472;2023-04-27T10:07:59;100810.63;;;10.48;56.02
4858;BME280;58975;51.978;8.472;2023-04-27T10:12:59;100804.03;;;10.05;57.21
4858;BME280;58975;51.978;8.472;2023-04-27T10:18:03;100812.78;;;9.94;55.73
4858;BME280;58975;51.978;8.472;2023-04-27T10:23:00;100803.34;;;10.98;56.78
4858;BME280;58975;51.978;8.472;2023-04-27T10:27:58;100794.91;;;11.15;50.44
4858;BME280;58975;51.978;8.472;2023-04-27T10:32:55;100787.41;;;10.50;53.78
4858;BME280;58975;51.978;8.472;2023-04-27T10:37:52;100780.41;;;11.41;50.86
4858;BME280;58975;51.978;8.472;2023-04-27T10:42:48;100776.84;;;11.75;48.73
4858;BME280;58975;51.978;8.472;2023-04-27T10:47:45;100777.44;;;11.11;51.09
4858;BME280;58975;51.978;8.472;2023-04-27T10:52:42;100774.13;;;10.85;50.48
4858;BME280;58975;51.978;8.472;2023-04-27T10:57:59;100766.75;;;11.00;48.39
4858;BME280;58975;51.978;8.472;2023-04-27T11:03:16;100758.00;;;11.55;49.00
4858;BME280;58975;51.978;8.472;2023-04-27T11:08:17;100754.63;;;10.96;49.11
4858;BME280;58975;51.978;8.472;2023-04-27T11:13:24;100745.53;;;10.28;53.12
4858;BME280;58975;51.978;8.472;2023-04-27T11:18:25;100726.00;;;10.04;55.27
4858;BME280;58975;51.978;8.472;2023-04-27T11:23:29;100748.31;;;10.27;51.71
4858;BME280;58975;51.978;8.472;2023-04-27T11:28:25;100738.88;;;10.23;51.89
4858;BME280;58975;51.978;8.472;2023-04-27T11:33:22;100737.50;;;11.44;52.88
4858;BME280;58975;51.978;8.472;2023-04-27T11:38:18;100727.59;;;11.79;50.16
4858;BME280;58975;51.978;8.472;2023-04-27T11:43:15;100729.38;;;11.68;50.26
4858;BME280;58975;51.978;8.472;2023-04-27T11:48:15;100728.09;;;12.16;50.35
4858;BME280;58975;51.978;8.472;2023-04-27T11:53:11;100717.91;;;12.21;50.44
4858;BME280;58975;51.978;8.472;2023-04-27T11:58:14;100714.34;;;12.32;47.74
4858;BME280;58975;51.978;8.472;2023-04-27T12:03:11;100723.13;;;12.12;48.31
4858;BME280;58975;51.978;8.472;2023-04-27T12:08:08;100739.75;;;10.93;49.49
4858;BME280;58975;51.978;8.472;2023-04-27T12:13:04;100726.84;;;10.41;49.78
4858;BME280;58975;51.978;8.472;2023-04-27T12:18:01;100726.44;;;11.15;49.00
4858;BME280;58975;51.978;8.472;2023-04-27T12:22:57;100723.16;;;10.89;49.43
4858;BME280;58975;51.978;8.472;2023-04-27T12:27:54;100710.16;;;10.74;48.31
4858;BME280;58975;51.978;8.472;2023-04-27T12:32:51;100715.78;;;11.71;49.47
4858;BME280;58975;51.978;8.472;2023-04-27T12:37:47;100711.56;;;12.33;48.87
4858;BME280;58975;51.978;8.472;2023-04-27T12:42:45;100708.31;;;12.51;44.68
4858;BME280;58975;51.978;8.472;2023-04-27T12:47:41;100706.69;;;12.59;47.17
4858;BME280;58975;51.978;8.472;2023-04-27T12:52:57;100689.03;;;13.30;42.41
4858;BME280;58975;51.978;8.472;2023-04-27T12:57:54;100698.38;;;13.15;45.60
4858;BME280;58975;51.978;8.472;2023-04-27T13:02:53;100700.34;;;13.13;43.80
4858;BME280;58975;51.978;8.472;2023-04-27T13:07:50;100701.22;;;13.84;45.98
4858;BME280;58975;51.978;8.472;2023-04-27T13:12:46;100688.31;;;14.85;42.69
4858;BME280;58975;51.978;8.472;2023-04-27T13:17:42;100687.91;;;15.26;38.96
4858;BME280;58975;51.978;8.472;2023-04-27T13:22:39;100684.00;;;15.11;43.83
4858;BME280;58975;51.978;8.472;2023-04-27T13:27:36;100691.41;;;14.71;43.53
4858;BME280;58975;51.978;8.472;2023-04-27T13:32:32;100688.28;;;12.77;44.11
4858;BME280;58975;51.978;8.472;2023-04-27T13:37:29;100688.59;;;12.42;46.89
4858;BME280;58975;51.978;8.472;2023-04-27T13:42:25;100677.75;;;12.23;45.58
4858;BME280;58975;51.978;8.472;2023-04-27T13:47:24;100675.34;;;12.09;45.08
4858;BME280;58975;51.978;8.472;2023-04-27T13:52:21;100677.09;;;12.51;48.75
4858;BME280;58975;51.978;8.472;2023-04-27T13:57:17;100664.78;;;13.52;47.42
4858;BME280;58975;51.978;8.472;2023-04-27T14:02:13;100658.00;;;13.58;42.04
4858;BME280;58975;51.978;8.472;2023-04-27T14:07:10;100648.13;;;14.56;42.91
4858;BME280;58975;51.978;8.472;2023-04-27T14:12:06;100649.91;;;13.08;43.49
4858;BME280;58975;51.978;8.472;2023-04-27T14:17:04;100652.03;;;12.43;45.61
4858;BME280;58975;51.978;8.472;2023-04-27T14:22:01;100633.03;;;13.08;44.39
4858;BME280;58975;51.978;8.472;2023-04-27T14:26:57;100644.19;;;14.70;42.56
4858;BME280;58975;51.978;8.472;2023-04-27T14:31:53;100639.41;;;15.37;42.36
4858;BME280;58975;51.978;8.472;2023-04-27T14:36:51;100629.94;;;15.43;41.11
4858;BME280;58975;51.978;8.472;2023-04-27T14:41:47;100636.84;;;13.95;43.49
4858;BME280;58975;51.978;8.472;2023-04-27T14:46:43;100632.59;;;12.82;42.77
4858;BME280;58975;51.978;8.472;2023-04-27T14:51:40;100629.78;;;13.94;44.52
4858;BME280;58975;51.978;8.472;2023-04-27T14:56:38;100618.66;;;14.08;42.79
4858;BME280;58975;51.978;8.472;2023-04-27T15:01:35;100619.16;;;14.79;43.37
4858;BME280;58975;51.978;8.472;2023-04-27T15:06:32;100609.56;;;15.59;40.91
4858;BME280;58975;51.978;8.472;2023-04-27T15:11:28;100613.59;;;15.36;40.39
4858;BME280;58975;51.978;8.472;2023-04-27T15:16:25;100608.22;;;15.91;41.35
4858;BME280;58975;51.978;8.472;2023-04-27T15:21:21;100600.25;;;15.99;39.07
4858;BME280;58975;51.978;8.472;2023-04-27T15:26:18;100609.56;;;15.59;39.26
4858;BME280;58975;51.978;8.472;2023-04-27T15:31:14;100599.28;;;15.18;41.53
4858;BME280;58975;51.978;8.472;2023-04-27T15:36:11;100602.59;;;15.30;40.27
4858;BME280;58975;51.978;8.472;2023-04-27T15:41:08;100597.28;;;15.20;41.55
4858;BME280;58975;51.978;8.472;2023-04-27T15:46:04;100601.75;;;15.29;41.38
4858;BME280;58975;51.978;8.472;2023-04-27T15:51:01;100579.88;;;14.31;41.04
4858;BME280;58975;51.978;8.472;2023-04-27T15:55:59;100582.31;;;14.15;42.55
4858;BME280;58975;51.978;8.472;2023-04-27T16:00:55;100581.84;;;14.19;41.69
4858;BME280;58975;51.978;8.472;2023-04-27T16:05:52;100576.16;;;13.36;43.76
4858;BME280;58975;51.978;8.472;2023-04-27T16:10:48;100576.16;;;13.06;42.92
4858;BME280;58975;51.978;8.472;2023-04-27T16:15:45;100576.09;;;13.17;44.42
4858;BME280;58975;51.978;8.472;2023-04-27T16:20:41;100566.09;;;13.19;44.51
4858;BME280;58975;51.978;8.472;2023-04-27T16:25:38;100563.88;;;13.24;43.31
4858;BME280;58975;51.978;8.472;2023-04-27T16:30:36;100564.28;;;13.29;42.93
4858;BME280;58975;51.978;8.472;2023-04-27T16:35:33;100558.38;;;12.95;44.56
4858;BME280;58975;51.978;8.472;2023-04-27T16:40:30;100546.56;;;12.98;45.26
4858;BME280;58975;51.978;8.472;2023-04-27T16:45:27;100544.63;;;13.00;47.68
4858;BME280;58975;51.978;8.472;2023-04-27T16:50:24;100535.06;;;13.07;46.41
4858;BME280;58975;51.978;8.472;2023-04-27T16:55:20;100530.38;;;13.30;45.09
4858;BME280;58975;51.978;8.472;2023-04-27T17:00:17;100544.94;;;13.65;45.19
4858;BME280;58975;51.978;8.472;2023-04-27T17:05:13;100538.22;;;13.21;44.15
4858;BME280;58975;51.978;8.472;2023-04-27T17:10:10;100544.81;;;13.86;45.33
4858;BME280;58975;51.978;8.472;2023-04-27T17:15:07;100542.81;;;14.17;42.46
4858;BME280;58975;51.978;8.472;2023-04-27T17:20:04;100536.31;;;14.48;42.92
4858;BME280;58975;51.978;8.472;2023-04-27T17:25:02;100536.06;;;14.23;45.30
4858;BME280;58975;51.978;8.472;2023-04-27T17:29:59;100535.50;;;13.81;45.07
4858;BME280;58975;51.978;8.472;2023-04-27T17:34:55;100521.97;;;13.53;45.63
4858;BME280;58975;51.978;8.472;2023-04-27T17:39:52;100518.69;;;13.21;45.26
4858;BME280;58975;51.978;8.472;2023-04-27T17:44:49;100509.75;;;13.01;45.39
4858;BME280;58975;51.978;8.472;2023-04-27T17:49:45;100506.41;;;12.78;45.00
4858;BME280;58975;51.978;8.472;2023-04-27T17:54:42;100520.00;;;12.66;48.84
4858;BME280;58975;51.978;8.472;2023-04-27T17:59:38;100523.56;;;12.25;48.27
4858;BME280;58975;51.978;8.472;2023-04-27T18:04:34;100515.34;;;11.96;48.24
4858;BME280;58975;51.978;8.472;2023-04-27T18:09:31;100516.78;;;11.68;49.72
4858;BME280;58975;51.978;8.472;2023-04-27T18:14:28;100510.66;;;11.25;51.27
4858;BME280;58975;51.978;8.472;2023-04-27T18:19:24;100517.25;;;10.87;52.79
4858;BME280;58975;51.978;8.472;2023-04-27T18:24:20;100513.59;;;10.55;54.92
4858;BME280;58975;51.978;8.472;2023-04-27T18:29:17;100519.47;;;10.14;55.37
4858;BME280;58975;51.978;8.472;2023-04-27T18:34:13;100525.09;;;9.87;56.08
4858;BME280;58975;51.978;8.472;2023-04-27T18:39:10;100529.00;;;9.47;58.92
4858;BME280;58975;51.978;8.472;2023-04-27T18:44:06;100520.78;;;9.26;59.07
4858;BME280;58975;51.978;8.472;2023-04-27T18:49:03;100516.50;;;9.13;59.44
4858;BME280;58975;51.978;8.472;2023-04-27T18:53:59;100509.19;;;9.03;60.50
4858;BME280;58975;51.978;8.472;2023-04-27T18:58:56;100520.28;;;8.97;59.59
4858;BME280;58975;51.978;8.472;2023-04-27T19:03:53;100526.25;;;8.88;59.55
4858;BME280;58975;51.978;8.472;2023-04-27T19:08:49;100521.69;;;8.78;60.79
4858;BME280;58975;51.978;8.472;2023-04-27T19:13:47;100534.91;;;8.54;61.95
4858;BME280;58975;51.978;8.472;2023-04-27T19:18:43;100535.31;;;8.48;61.22
4858;BME280;58975;51.978;8.472;2023-04-27T19:23:40;100532.78;;;8.46;60.56
4858;BME280;58975;51.978;8.472;2023-04-27T19:28:36;100527.34;;;8.48;60.19
4858;BME280;58975;51.978;8.472;2023-04-27T19:33:33;100536.06;;;8.37;61.23
4858;BME280;58975;51.978;8.472;2023-04-27T19:38:29;100538.38;;;8.29;61.93
4858;BME280;58975;51.978;8.472;2023-04-27T19:43:26;100535.47;;;8.20;62.48
4858;BME280;58975;51.978;8.472;2023-04-27T19:48:22;100533.13;;;8.02;64.08
4858;BME280;58975;51.978;8.472;2023-04-27T19:53:19;100529.00;;;7.98;65.54
4858;BME280;58975;51.978;8.472;2023-04-27T19:58:15;100545.28;;;7.80;67.91
4858;BME280;58975;51.978;8.472;2023-04-27T20:03:12;100531.22;;;7.65;68.49
4858;BME280;58975;51.978;8.472;2023-04-27T20:08:09;100529.94;;;7.58;70.92
4858;BME280;58975;51.978;8.472;2023-04-27T20:13:06;100525.06;;;7.52;70.98
4858;BME280;58975;51.978;8.472;2023-04-27T20:18:02;100530.53;;;7.36;73.43
4858;BME280;58975;51.978;8.472;2023-04-27T20:22:58;100520.06;;;7.21;76.67
4858;BME280;58975;51.978;8.472;2023-04-27T20:27:55;100507.31;;;7.13;79.73
4858;BME280;58975;51.978;8.472;2023-04-27T20:32:51;100502.84;;;7.13;83.74
4858;BME280;58975;51.978;8.472;2023-04-27T20:37:47;100495.59;;;7.03;85.13
4858;BME280;58975;51.978;8.472;2023-04-27T20:42:44;100484.78;;;6.93;89.30
4858;BME280;58975;51.978;8.472;2023-04-27T20:47:41;100476.50;;;6.98;88.46
4858;BME280;58975;51.978;8.472;2023-04-27T20:52:37;100480.28;;;7.08;88.95
4858;BME280;58975;51.978;8.472;2023-04-27T20:57:34;100478.13;;;7.00;100.00
4858;BME280;58975;51.978;8.472;2023-04-27T21:02:30;100471.56;;;7.06;100.00
4858;BME280;58975;51.978;8.472;2023-04-27T21:07:27;100473.72;;;7.13;100.00
4858;BME280;58975;51.978;8.472;2023-04-27T21:12:23;100476.53;;;7.25;100.00
4858;BME280;58975;51.978;8.472;2023-04-27T21:17:19;100471.84;;;7.55;97.58
4858;BME280;58975;51.978;8.472;2023-04-27T21:22:16;100466.66;;;7.53;97.29
4858;BME280;58975;51.978;8.472;2023-04-27T21:27:12;100465.31;;;7.73;89.90
4858;BME280;58975;51.978;8.472;2023-04-27T21:32:09;100453.78;;;7.87;88.66
4858;BME280;58975;51.978;8.472;2023-04-27T21:37:05;100436.25;;;7.84;85.35
4858;BME280;58975;51.978;8.472;2023-04-27T21:42:01;100439.25;;;7.80;91.81
4858;BME280;58975;51.978;8.472;2023-04-27T21:46:58;100429.47;;;7.80;90.21
4858;BME280;58975;51.978;8.472;2023-04-27T21:51:55;100430.97;;;7.72;97.08
4858;BME280;58975;51.978;8.472;2023-04-27T21:56:51;100424.50;;;7.63;99.53
4858;BME280;58975;51.978;8.472;2023-04-27T22:06:55;100403.94;;;7.79;90.21
4858;BME280;58975;51.978;8.472;2023-04-27T22:11:52;100399.56;;;7.78;86.88
4858;BME280;58975;51.978;8.472;2023-04-27T22:16:49;100389.72;;;7.68;97.06
4858;BME280;58975;51.978;8.472;2023-04-27T22:21:45;100380.81;;;7.56;99.43
4858;BME280;58975;51.978;8.472;2023-04-27T22:26:42;100371.38;;;7.52;97.57
4858;BME280;58975;51.978;8.472;2023-04-27T22:31:38;100365.63;;;7.45;100.00
4858;BME280;58975;51.978;8.472;2023-04-27T22:36:35;100359.06;;;7.38;100.00
4858;BME280;58975;51.978;8.472;2023-04-27T22:41:32;100357.44;;;7.23;100.00
4858;BME280;58975;51.978;8.472;2023-04-27T22:46:28;100352.56;;;7.17;100.00
4858;BME280;58975;51.978;8.472;2023-04-27T22:51:25;100352.88;;;7.12;100.00
4858;BME280;58975;51.978;8.472;2023-04-27T22:56:22;100348.19;;;7.03;100.00
4858;BME280;58975;51.978;8.472;2023-04-27T23:01:19;100346.28;;;7.05;100.00
4858;BME280;58975;51.978;8.472;2023-04-27T23:06:15;100335.88;;;7.02;100.00
4858;BME280;58975;51.978;8.472;2023-04-27T23:11:12;100324.00;;;6.95;100.00
4858;BME280;58975;51.978;8.472;2023-04-27T23:16:09;100331.66;;;7.00;100.00
4858;BME280;58975;51.978;8.472;2023-04-27T23:21:05;100322.94;;;6.98;100.00
4858;BME280;58975;51.978;8.472;2023-04-27T23:26:02;100318.31;;;7.01;100.00
4858;BME280;58975;51.978;8.472;2023-04-27T23:30:58;100313.03;;;7.01;100.00
4858;BME280;58975;51.978;8.472;2023-04-27T23:35:55;100297.16;;;7.01;100.00
4858;BME280;58975;51.978;8.472;2023-04-27T23:40:51;100303.94;;;7.05;100.00
4858;BME280;58975;51.978;8.472;2023-04-27T23:45:49;100292.19;;;7.09;100.00
4858;BME280;58975;51.978;8.472;2023-04-27T23:50:46;100284.41;;;7.06;100.00
4858;BME280;58975;51.978;8.472;2023-04-27T23:55:42;100274.69;;;7.07;100.00
